Hovedside
METAR-TAF:

METAR-TAF

Lufthavner :

Sandane lufthamn. Anda

Sandane, Norge

breddegrad: 61-50N, lengdegrad: 006-07E, høyde over havet: 6 m

Gjeldene værobservasjon

Denne rapporten ble laget for 45 minutter siden, klokken 05:50 UTC
Vind 4 kt fra Sør-sørøst
Temperatur -3°C
Luftfuktighet 100%
Trykk 1021 hPa
Sikt 10 km eller mer
Spredte skyer i en høyde av 600 ft
Brutte skyer i en høyde av 1400 ft

METAR: ENSD 150550Z 16004KT 9999 SCT006 BKN014 M03/M03 Q1021 RMK WIND 1138FT VRB04KT

Tid: 07:35 (06:35 UTC)


TAF: fraværende

Værobservasjoner og værvarsel for over 4000 flyplasser (METAR- og TAF-rapporter).

Tilgjengelige stasjoner er representert av de røde og gule prikkene på kartet.

Hold musepekeren over prikken for å se navnet på stasjonen.

Klikk så for å se værobservasjoner og -varsler.

For å forandre kartet kan du klikke på den grønne knappen med svart kryss for å zoome inn, på den grønne knappen med strek for å zoome ut, eller på de grønne pilene for å se tilstøtende kart.


METAR-TAF: